Palmer, Indiana
Current Conditions -  °F | °C
As of 5:35 PM on Saturday 20 Dec 2014 (Local Time) from KIGQ Reporting Station
Overcast Overcast  
Wind Chill: 27°   Ceiling: 7000
Heat Index: 31°   Visibility: 10mi
Dew Point: 27°   Wind: 5mph
Humidity: 83%   Direction: 180°S
Pressure: 30.27"   Gusts: NA
Location:  41.4039°N, 87.3294°W
Report Text: KIGQ 202335Z AUTO 18004KT 10SM SCT043 OVC070 00/M03 A3027 RMK AO2 T10041029
Loading
Personal Weather Stations






























Interactive Weather Map New forecast layout! Learn more

10-Day Weather Forecast

Advertisements
Track Severe Weather on mobile